createdAt,value
2023-05-14T00:07:26.261Z,102079.00
2023-05-14T00:12:29.455Z,102081.00
2023-05-14T00:17:31.861Z,102070.00
2023-05-14T00:22:36.016Z,102072.00
2023-05-14T00:27:38.476Z,102064.00
2023-05-14T00:32:40.972Z,102063.00
2023-05-14T00:37:44.867Z,102067.00
2023-05-14T00:42:47.260Z,102078.00
2023-05-14T00:47:50.231Z,102064.00
2023-05-14T00:52:54.428Z,102068.00
2023-05-14T00:57:59.690Z,102068.00
2023-05-14T01:03:03.778Z,102054.00
2023-05-14T01:08:22.641Z,102066.00
2023-05-14T01:13:33.747Z,102067.00
2023-05-14T01:18:37.005Z,102064.00
2023-05-14T01:23:40.894Z,102072.00
2023-05-14T01:28:54.015Z,102078.00
2023-05-14T01:33:59.181Z,102075.00
2023-05-14T01:39:04.169Z,102057.00
2023-05-14T01:44:08.988Z,102069.00
2023-05-14T01:49:11.486Z,102051.00
2023-05-14T01:54:15.716Z,102052.00
2023-05-14T01:59:18.167Z,102042.00
2023-05-14T02:04:20.583Z,102056.00
2023-05-14T02:09:24.714Z,102046.00
2023-05-14T02:14:27.272Z,102045.00
2023-05-14T02:19:30.027Z,102043.00
2023-05-14T02:24:33.904Z,102046.00
2023-05-14T02:29:36.634Z,102037.00
2023-05-14T02:34:41.759Z,102035.00
2023-05-14T02:39:45.641Z,102032.00
2023-05-14T02:44:48.368Z,102037.00
2023-05-14T02:49:50.977Z,102026.00
2023-05-14T02:54:54.774Z,102018.00
2023-05-14T02:59:57.271Z,102018.00
2023-05-14T03:05:00.269Z,102021.00
2023-05-14T03:10:08.685Z,102027.00
2023-05-14T03:15:11.835Z,102018.00
2023-05-14T03:20:17.044Z,102019.00
2023-05-14T03:25:20.985Z,102022.00
2023-05-14T03:30:23.692Z,102016.00
2023-05-14T03:35:26.581Z,102019.00
2023-05-14T03:40:30.835Z,102024.00
2023-05-14T03:45:33.924Z,102011.00
2023-05-14T03:50:36.928Z,102016.00
2023-05-14T03:55:41.015Z,102020.00
2023-05-14T04:00:46.953Z,102010.00
2023-05-14T04:05:49.514Z,102012.00
2023-05-14T04:10:53.450Z,102009.00
2023-05-14T04:15:58.685Z,102009.00
2023-05-14T04:21:01.607Z,102023.00
2023-05-14T04:26:05.696Z,102016.00
2023-05-14T04:31:12.568Z,102011.00
2023-05-14T04:36:15.477Z,102011.00
2023-05-14T04:41:22.340Z,102005.00
2023-05-14T04:46:28.038Z,101992.00
2023-05-14T04:51:30.667Z,101999.00
2023-05-14T04:56:34.664Z,102005.00
2023-05-14T05:01:37.348Z,101996.00
2023-05-14T05:06:40.008Z,101999.00
2023-05-14T05:11:44.138Z,101986.00
2023-05-14T05:16:46.724Z,101984.00
2023-05-14T05:21:49.594Z,101978.00
2023-05-14T05:26:53.667Z,101966.00
2023-05-14T05:31:56.280Z,101970.00
2023-05-14T05:36:58.857Z,101960.00
2023-05-14T05:42:03.054Z,101967.00
2023-05-14T05:47:08.738Z,101978.00
2023-05-14T05:52:11.404Z,101973.00
2023-05-14T05:57:15.320Z,101964.00
2023-05-14T06:02:17.882Z,101966.00
2023-05-14T06:07:22.970Z,101953.00
2023-05-14T06:12:27.038Z,101966.00
2023-05-14T06:17:32.474Z,101964.00
2023-05-14T06:22:37.831Z,101963.00
2023-05-14T06:27:44.575Z,101959.00
2023-05-14T06:32:47.166Z,101963.00
2023-05-14T06:37:49.688Z,101961.00
2023-05-14T06:42:56.932Z,101955.00
2023-05-14T06:48:00.122Z,101946.00
2023-05-14T06:53:02.782Z,101948.00
2023-05-14T06:58:08.362Z,101934.00
2023-05-14T07:03:10.875Z,101943.00
2023-05-14T07:08:13.565Z,101932.00
2023-05-14T07:13:17.400Z,101921.00
2023-05-14T07:18:19.769Z,101933.00
2023-05-14T07:23:22.301Z,101925.00
2023-05-14T07:28:26.126Z,101920.00
2023-05-14T07:33:28.550Z,101928.00
2023-05-14T07:38:32.192Z,101912.00
2023-05-14T07:43:35.980Z,101908.00
2023-05-14T07:48:38.382Z,101907.00
2023-05-14T07:53:40.975Z,101901.00
2023-05-14T07:58:47.825Z,101883.00
2023-05-14T08:03:50.456Z,101895.00
2023-05-14T08:08:52.908Z,101890.00
2023-05-14T08:13:56.690Z,101877.00
2023-05-14T08:18:59.248Z,101878.00
2023-05-14T08:24:01.701Z,101870.00
2023-05-14T08:29:05.637Z,101880.00
2023-05-14T08:34:08.143Z,101874.00
2023-05-14T08:39:10.546Z,101864.00
2023-05-14T08:44:19.289Z,101855.00
2023-05-14T08:49:38.939Z,101853.00
2023-05-14T08:54:41.496Z,101845.00
2023-05-14T08:59:48.357Z,101848.00
2023-05-14T09:04:55.184Z,101840.00
2023-05-14T09:09:57.827Z,101832.00
2023-05-14T09:15:05.727Z,101827.00
2023-05-14T09:20:12.388Z,101815.00
2023-05-14T09:25:14.857Z,101821.00
2023-05-14T09:30:18.928Z,101817.00
2023-05-14T09:35:24.981Z,101815.00
2023-05-14T09:40:27.785Z,101804.00
2023-05-14T09:45:41.578Z,101799.00
2023-05-14T09:50:53.645Z,101800.00
2023-05-14T09:55:56.136Z,101798.00
2023-05-14T10:01:01.829Z,101792.00
2023-05-14T10:06:06.880Z,101777.00
2023-05-14T10:11:18.757Z,101778.00
2023-05-14T10:16:33.217Z,101759.00
2023-05-14T10:21:38.919Z,101767.00
2023-05-14T10:26:42.549Z,101753.00
2023-05-14T10:31:51.776Z,101754.00
2023-05-14T10:36:54.269Z,101749.00
2023-05-14T10:41:57.359Z,101752.00
2023-05-14T10:47:01.788Z,101742.00
2023-05-14T10:52:07.384Z,101741.00
2023-05-14T10:57:12.259Z,101733.00
2023-05-14T11:02:26.325Z,101730.00
2023-05-14T11:07:31.493Z,101714.00
2023-05-14T11:12:35.837Z,101712.00
2023-05-14T11:17:42.669Z,101707.00
2023-05-14T11:22:47.117Z,101701.00
2023-05-14T11:27:51.437Z,101701.00
2023-05-14T11:32:56.614Z,101694.00
2023-05-14T11:37:59.185Z,101671.00
2023-05-14T11:43:01.885Z,101674.00
2023-05-14T11:48:13.771Z,101664.00
2023-05-14T11:53:20.126Z,101670.00
2023-05-14T11:58:22.863Z,101656.00
2023-05-14T12:03:27.180Z,101661.00
2023-05-14T12:08:31.947Z,101656.00
2023-05-14T12:13:36.316Z,101656.00
2023-05-14T12:18:40.437Z,101643.00
2023-05-14T12:23:42.959Z,101634.00
2023-05-14T12:28:48.275Z,101641.00
2023-05-14T12:33:52.212Z,101615.00
2023-05-14T12:39:03.000Z,101620.00
2023-05-14T12:44:05.895Z,101608.00
2023-05-14T12:49:10.146Z,101604.00
2023-05-14T12:54:12.651Z,101597.00
2023-05-14T12:59:15.293Z,101588.00
2023-05-14T13:04:19.351Z,101584.00
2023-05-14T13:09:22.152Z,101582.00
2023-05-14T13:14:27.412Z,101586.00
2023-05-14T13:19:31.421Z,101586.00
2023-05-14T13:24:35.866Z,101584.00
2023-05-14T13:29:38.364Z,101576.00
2023-05-14T13:34:42.265Z,101563.00
2023-05-14T13:39:44.821Z,101558.00
2023-05-14T13:44:47.304Z,101550.00
2023-05-14T13:49:52.162Z,101540.00
2023-05-14T13:54:54.553Z,101540.00
2023-05-14T13:59:59.704Z,101525.00
2023-05-14T14:05:03.716Z,101520.00
2023-05-14T14:10:10.355Z,101519.00
2023-05-14T14:15:12.792Z,101515.00
2023-05-14T14:20:16.772Z,101511.00
2023-05-14T14:25:19.223Z,101513.00
2023-05-14T14:30:21.629Z,101511.00
2023-05-14T14:35:25.894Z,101508.00
2023-05-14T14:40:28.489Z,101506.00
2023-05-14T14:45:33.835Z,101492.00
2023-05-14T14:50:38.021Z,101481.00
2023-05-14T14:55:40.478Z,101472.00
2023-05-14T15:00:46.206Z,101465.00
2023-05-14T15:05:50.605Z,101470.00
2023-05-14T15:10:53.301Z,101465.00
2023-05-14T15:15:55.816Z,101447.00
2023-05-14T15:20:59.711Z,101451.00
2023-05-14T15:26:05.355Z,101457.00
2023-05-14T15:31:08.026Z,101448.00
2023-05-14T15:36:12.567Z,101453.00
2023-05-14T15:41:15.880Z,101440.00
2023-05-14T15:46:18.567Z,101443.00
2023-05-14T15:51:22.449Z,101447.00
2023-05-14T15:56:25.027Z,101443.00
2023-05-14T16:01:27.537Z,101435.00
2023-05-14T16:06:31.471Z,101438.00
2023-05-14T16:11:33.985Z,101434.00
2023-05-14T16:16:37.378Z,101418.00
2023-05-14T16:21:41.306Z,101417.00
2023-05-14T16:26:46.745Z,101414.00
2023-05-14T16:31:49.263Z,101407.00
2023-05-14T16:36:53.758Z,101406.00
2023-05-14T16:41:56.242Z,101406.00
2023-05-14T16:46:58.671Z,101399.00
2023-05-14T16:52:02.446Z,101409.00
2023-05-14T16:57:05.893Z,101408.00
2023-05-14T17:02:08.462Z,101397.00
2023-05-14T17:07:15.105Z,101392.00
2023-05-14T17:12:17.460Z,101393.00
2023-05-14T17:17:19.928Z,101395.00
2023-05-14T17:22:26.534Z,101390.00
2023-05-14T17:27:29.129Z,101390.00
2023-05-14T17:32:31.806Z,101379.00
2023-05-14T17:37:36.138Z,101386.00
2023-05-14T17:42:38.579Z,101382.00
2023-05-14T17:47:41.243Z,101381.00
2023-05-14T17:52:48.244Z,101373.00
2023-05-14T17:57:53.606Z,101385.00
2023-05-14T18:02:56.116Z,101389.00
2023-05-14T18:08:02.777Z,101392.00
2023-05-14T18:13:05.181Z,101380.00
2023-05-14T18:18:08.148Z,101385.00
2023-05-14T18:23:14.886Z,101380.00
2023-05-14T18:28:17.408Z,101375.00
2023-05-14T18:33:19.845Z,101384.00
2023-05-14T18:38:26.144Z,101377.00
2023-05-14T18:43:28.521Z,101388.00
2023-05-14T18:48:31.581Z,101384.00
2023-05-14T18:53:35.341Z,101382.00
2023-05-14T18:58:37.744Z,101389.00
2023-05-14T19:03:40.406Z,101382.00
2023-05-14T19:08:44.632Z,101382.00
2023-05-14T19:13:47.105Z,101384.00
2023-05-14T19:18:49.768Z,101378.00
2023-05-14T19:23:54.180Z,101373.00
2023-05-14T19:28:57.343Z,101370.00
2023-05-14T19:33:59.777Z,101374.00
2023-05-14T19:39:04.094Z,101370.00
2023-05-14T19:44:06.541Z,101368.00
2023-05-14T19:49:09.244Z,101371.00
2023-05-14T19:54:13.117Z,101367.00
2023-05-14T19:59:15.787Z,101359.00
2023-05-14T20:04:18.153Z,101362.00
2023-05-14T20:09:22.036Z,101363.00
2023-05-14T20:14:24.419Z,101350.00
2023-05-14T20:19:26.781Z,101359.00
2023-05-14T20:24:31.016Z,101358.00
2023-05-14T20:29:33.497Z,101348.00
2023-05-14T20:34:36.070Z,101357.00
2023-05-14T20:39:42.430Z,101342.00
2023-05-14T20:44:44.822Z,101345.00
2023-05-14T20:49:47.704Z,101334.00
2023-05-14T20:54:51.766Z,101329.00
2023-05-14T20:59:54.310Z,101330.00
2023-05-14T21:04:56.751Z,101318.00
2023-05-14T21:10:00.614Z,101310.00
2023-05-14T21:15:06.040Z,101305.00
2023-05-14T21:20:09.890Z,101300.00
2023-05-14T21:25:13.730Z,101306.00
2023-05-14T21:30:16.527Z,101298.00
2023-05-14T21:35:18.944Z,101298.00
2023-05-14T21:40:23.245Z,101288.00
2023-05-14T21:45:28.972Z,101284.00
2023-05-14T21:50:31.610Z,101285.00
2023-05-14T21:55:35.857Z,101288.00
2023-05-14T22:00:38.549Z,101285.00
2023-05-14T22:05:41.052Z,101276.00
2023-05-14T22:10:46.539Z,101277.00
2023-05-14T22:15:51.299Z,101264.00
2023-05-14T22:20:57.314Z,101270.00
2023-05-14T22:26:01.157Z,101257.00
2023-05-14T22:31:03.666Z,101255.00
2023-05-14T22:36:07.236Z,101254.00
2023-05-14T22:41:11.075Z,101247.00
2023-05-14T22:46:13.582Z,101242.00
2023-05-14T22:51:16.055Z,101232.00
2023-05-14T22:56:19.959Z,101229.00
2023-05-14T23:01:22.338Z,101238.00
2023-05-14T23:06:25.595Z,101213.00
2023-05-14T23:11:29.380Z,101212.00
2023-05-14T23:16:35.044Z,101196.00
2023-05-14T23:21:37.448Z,101192.00
2023-05-14T23:26:41.782Z,101182.00
2023-05-14T23:31:44.388Z,101175.00
2023-05-14T23:36:50.042Z,101174.00
2023-05-14T23:41:53.855Z,101168.00
2023-05-14T23:46:56.346Z,101159.00
2023-05-14T23:52:01.502Z,101157.00
2023-05-14T23:57:06.092Z,101148.00
